Terminal Aerodrome Forecast
Issued by NWS

Home | Current Version | Previous Version | Text Only | Print | Product List | Glossary On
Versions: 1 2 3 4 5 6 7 8 9 10 11 12 13 14 15
018
FTAK31 PAJN 261727
TAFAKT
TAF
PAKT 261727Z 2618/2718 33006KT P6SM FEW120
     FM270000 33008KT P6SM SCT060 BKN100
     FM270600 VRB05KT P6SM BKN060 OVC100
      AMD LTD TO CLD VIS AND WIND 2706/2715=

USA.gov is the U.S. government's official web portal to all federal, state and local government web resources and services.